Airfield :
LOGIN :

Register | Disclaimer

   EN    FR    IT 

 










Legend :    VFR   Marginal VFR   IFR   Intensive IFR   Very Intensive IFR
Visi :
Ceiling :
>= 8 km
>= 3000ft
5 to 8 km
1000 to 3000 ft
1500m to 5 km
500 to 1000 ft
800 to 1500m
200 to 500 ft
< 800m
< 200 ft
Symbols :   Thunderstorms  Fog  Heavy snow  Heavy precipitations  Wind > 20 kt
SIGMETs :     Misc.  Thunderstorms  Icing  Turbulence  Mountain Waves  Volcanic Ashes






- Airport Elevation : 17 ft
- IATA code : GRQ


EHGG - Groningen Eelde

CURRENT METAR :
  • 140825Z AUTO 12005KT 090V160 9999 NSC 03/02 Q1003 NOSIG

EXPIRED METARs :
  • 140755Z AUTO 12005KT 080V160 9000 NSC 03/02 Q1002 NOSIG
  • 140725Z AUTO 11005KT 090V150 7000 NSC 02/02 Q1002 TEMPO 7000
  • 140655Z AUTO 10005KT 6000 NCD 02/02 Q1001 BECMG 8000 NSW
  • 140625Z AUTO 12005KT 090V150 6000 NSC 03/02 Q1001 BECMG 8000 NSW
  • 140555Z AUTO 12004KT 5000 BR NCD 03/02 Q1001 BECMG 8000 NSW

TAF TAF EHGG
Valid from the 14 at 06:00 until the 15 at 12:00 UTC


140513Z 1406/1512 12009KT 9000 NSC
BECMG 1412/1415 09010KT
BECMG 1502/1505 06016KT
BECMG 1504/1506 6000 BKN012
PROB40 1506/1512 BKN006
BECMG 1511/1512 09014KT



MET'MAP, your aeronautical weather chart ! - Copyright ORBIFLY December 2007 - Disclaimer

ORBIFLY MET'MAP TEAM :

Programming & Development : Alexandra Zaïnal
Concept & Development : Baudouin d'Aumeries
Co-Development & Prog : Marc-Olivier Méhu
Technical & hardware support : Manuel Goepfert

Contact : metmap@orbifly.com




SOURCES & CREDITS :

   NOAA